createdAt,value
2018-11-13T00:00:01.509Z,98.35
2018-11-13T00:05:01.779Z,98.35
2018-11-13T00:10:02.018Z,98.35
2018-11-13T00:15:01.450Z,98.38
2018-11-13T00:20:01.743Z,95.71
2018-11-13T00:25:02.021Z,98.21
2018-11-13T00:30:01.310Z,95.86
2018-11-13T00:35:01.656Z,98.56
2018-11-13T00:40:01.978Z,96.29
2018-11-13T00:45:01.247Z,98.26
2018-11-13T00:50:01.578Z,95.83
2018-11-13T00:55:02.972Z,97.37
2018-11-13T01:00:01.972Z,97.96
2018-11-13T01:05:01.321Z,98.57
2018-11-13T01:10:01.760Z,95.92
2018-11-13T01:15:02.230Z,98.65
2018-11-13T01:20:01.633Z,96.34
2018-11-13T01:25:01.887Z,98.4
2018-11-13T01:30:02.180Z,98.86
2018-11-13T01:35:01.500Z,98.76
2018-11-13T01:40:01.806Z,97.77
2018-11-13T01:45:02.096Z,98.5
2018-11-13T01:50:01.479Z,98.31
2018-11-13T01:55:01.799Z,98.11
2018-11-13T02:00:02.057Z,95.28
2018-11-13T02:05:01.429Z,95.38
2018-11-13T02:10:01.880Z,98.31
2018-11-13T02:15:02.150Z,98.22
2018-11-13T02:20:01.628Z,98.43
2018-11-13T02:25:01.944Z,98.47
2018-11-13T02:30:01.518Z,98.16
2018-11-13T02:35:01.854Z,97.8
2018-11-13T02:40:02.130Z,94.81
2018-11-13T02:45:01.389Z,97.12
2018-11-13T02:50:01.715Z,96.84
2018-11-13T02:55:02.007Z,95.9
2018-11-13T03:00:01.304Z,95.04
2018-11-13T03:05:01.652Z,94.94
2018-11-13T03:10:02.011Z,95.39
2018-11-13T03:15:01.457Z,95.33
2018-11-13T03:20:01.819Z,95.02
2018-11-13T03:25:02.127Z,94.79
2018-11-13T03:30:01.484Z,95.54
2018-11-13T03:35:01.798Z,96.12
2018-11-13T03:40:02.149Z,96.24
2018-11-13T03:45:01.456Z,95.71
2018-11-13T03:50:01.764Z,95.51
2018-11-13T03:55:02.027Z,95.31
2018-11-13T04:00:01.312Z,93.96
2018-11-13T04:05:01.657Z,93.41
2018-11-13T04:10:01.942Z,92.83
2018-11-13T04:15:01.312Z,92.42
2018-11-13T04:20:01.639Z,93.34
2018-11-13T04:25:01.939Z,93.11
2018-11-13T04:30:01.232Z,93.34
2018-11-13T04:35:01.593Z,92.65
2018-11-13T04:40:01.929Z,92.54
2018-11-13T04:45:01.233Z,92.51
2018-11-13T04:50:01.528Z,91.94
2018-11-13T04:55:01.928Z,92.48
2018-11-13T05:00:01.229Z,92.98
2018-11-13T05:05:01.651Z,92.96
2018-11-13T05:10:02.054Z,93.79
2018-11-13T05:15:01.585Z,93.85
2018-11-13T05:20:01.914Z,93.94
2018-11-13T05:25:01.217Z,94.32
2018-11-13T05:30:01.524Z,94.06
2018-11-13T05:35:01.865Z,93.24
2018-11-13T05:40:02.053Z,92.17
2018-11-13T05:45:01.327Z,92.87
2018-11-13T05:50:01.644Z,93.61
2018-11-13T05:55:01.934Z,93.93
2018-11-13T06:00:01.578Z,94.13
2018-11-13T06:05:01.995Z,93.67
2018-11-13T06:10:01.311Z,93.61
2018-11-13T06:15:01.634Z,93.97
2018-11-13T06:20:01.954Z,94.28
2018-11-13T06:25:01.257Z,94.16
2018-11-13T06:30:01.585Z,94.09
2018-11-13T06:35:01.908Z,94.2
2018-11-13T06:40:02.185Z,94.23
2018-11-13T06:45:01.489Z,94.03
2018-11-13T06:50:01.788Z,93.59
2018-11-13T06:55:02.046Z,92.64
2018-11-13T07:00:01.358Z,93.58
2018-11-13T07:05:01.848Z,93.38
2018-11-13T07:10:01.363Z,92.53
2018-11-13T07:15:01.708Z,93.18
2018-11-13T07:20:02.037Z,93.46
2018-11-13T07:25:01.354Z,93.41
2018-11-13T07:30:01.652Z,93.64
2018-11-13T07:35:01.961Z,93.98
2018-11-13T07:40:01.296Z,94.45
2018-11-13T07:45:01.590Z,95.03
2018-11-13T07:50:01.900Z,94.98
2018-11-13T07:55:02.188Z,95.14
2018-11-13T08:00:01.462Z,95.19
2018-11-13T08:05:01.751Z,94.99
2018-11-13T08:10:02.025Z,94.74
2018-11-13T08:15:01.360Z,93.7
2018-11-13T08:20:01.679Z,92.95
2018-11-13T08:25:01.979Z,93.51
2018-11-13T08:30:01.295Z,93.33
2018-11-13T08:35:01.994Z,93.58
2018-11-13T08:40:01.576Z,93.18
2018-11-13T08:45:01.870Z,92.68
2018-11-13T08:50:02.140Z,89.83
2018-11-13T08:55:01.411Z,89.26
2018-11-13T09:00:01.728Z,87.17
2018-11-13T09:05:02.199Z,86.83
2018-11-13T09:10:01.745Z,85.79
2018-11-13T09:15:02.076Z,84.95
2018-11-13T09:20:01.387Z,85.06
2018-11-13T09:25:01.659Z,83.67
2018-11-13T09:30:02.174Z,81.92
2018-11-13T09:35:01.864Z,81.96
2018-11-13T09:40:02.118Z,79.67
2018-11-13T09:45:01.726Z,79.33
2018-11-13T09:50:02.204Z,79.1
2018-11-13T09:55:01.486Z,80.25
2018-11-13T10:00:02.056Z,78.73
2018-11-13T10:05:03.951Z,78.09
2018-11-13T10:10:01.742Z,78.55
2018-11-13T10:15:02.104Z,77.71
2018-11-13T10:20:01.409Z,78.12
2018-11-13T10:25:01.758Z,77.86
2018-11-13T10:30:02.297Z,77.31
2018-11-13T10:35:01.635Z,78.02
2018-11-13T10:40:01.988Z,76.62
2018-11-13T10:45:01.349Z,75.57
2018-11-13T10:50:01.736Z,74.95
2018-11-13T10:55:02.032Z,74.4
2018-11-13T11:00:01.328Z,75.17
2018-11-13T11:05:01.646Z,75.25
2018-11-13T11:10:01.921Z,73.97
2018-11-13T11:15:01.220Z,73.62
2018-11-13T11:20:01.586Z,74.01
2018-11-13T11:25:01.998Z,73.17
2018-11-13T11:30:01.457Z,73.13
2018-11-13T11:35:01.776Z,73.04
2018-11-13T11:40:02.057Z,72.44
2018-11-13T11:45:01.337Z,71.08
2018-11-13T11:50:01.650Z,70.47
2018-11-13T11:55:01.962Z,72.82
2018-11-13T12:00:01.283Z,70.58
2018-11-13T12:05:01.588Z,70.56
2018-11-13T12:10:01.888Z,72.36
2018-11-13T12:15:02.160Z,71.08
2018-11-13T12:20:01.459Z,70.82
2018-11-13T12:25:01.772Z,72.42
2018-11-13T12:30:02.045Z,72.85
2018-11-13T12:35:01.388Z,73.9
2018-11-13T12:40:01.706Z,71.34
2018-11-13T12:45:01.974Z,71.68
2018-11-13T12:50:01.250Z,72.02
2018-11-13T12:55:01.566Z,72.56
2018-11-13T13:00:01.845Z,73.01
2018-11-13T13:05:02.089Z,71.87
2018-11-13T13:10:01.360Z,72.29
2018-11-13T13:15:01.930Z,72.53
2018-11-13T13:20:01.402Z,71.68
2018-11-13T13:25:01.647Z,72.9
2018-11-13T13:30:01.917Z,72.36
2018-11-13T13:35:01.246Z,72.39
2018-11-13T13:40:01.544Z,72.85
2018-11-13T13:45:01.828Z,73.15
2018-11-13T13:50:02.097Z,73.05
2018-11-13T13:55:01.366Z,72.62
2018-11-13T14:00:02.345Z,73.66
2018-11-13T14:05:02.043Z,72.43
2018-11-13T14:10:01.341Z,73.12
2018-11-13T14:15:02.097Z,73.98
2018-11-13T14:20:01.845Z,74.97
2018-11-13T14:25:02.163Z,75.55
2018-11-13T14:30:01.432Z,75.65
2018-11-13T14:35:01.753Z,76.32
2018-11-13T14:40:02.005Z,76.8
2018-11-13T14:45:01.489Z,76.43
2018-11-13T14:50:01.921Z,75.96
2018-11-13T14:55:01.799Z,75.71
2018-11-13T15:00:02.051Z,75.18
2018-11-13T15:05:01.375Z,75.04
2018-11-13T15:10:01.674Z,75.43
2018-11-13T15:15:02.077Z,75.8
2018-11-13T15:20:01.451Z,75.17
2018-11-13T15:25:01.736Z,76.03
2018-11-13T15:30:02.039Z,76.82
2018-11-13T15:35:01.351Z,77.94
2018-11-13T15:40:01.682Z,79.16
2018-11-13T15:45:02.347Z,79.36
2018-11-13T15:50:01.751Z,80.86
2018-11-13T15:55:01.982Z,81.32
2018-11-13T16:00:01.523Z,81.49
2018-11-13T16:05:01.928Z,82.48
2018-11-13T16:10:01.289Z,83.07
2018-11-13T16:15:01.754Z,83.41
2018-11-13T16:20:02.134Z,83.92
2018-11-13T16:25:01.362Z,83.31
2018-11-13T16:30:01.800Z,84.75
2018-11-13T16:35:01.292Z,84.22
2018-11-13T16:40:01.647Z,84.88
2018-11-13T16:45:01.949Z,85.03
2018-11-13T16:50:01.369Z,85.5
2018-11-13T16:55:01.659Z,85.61
2018-11-13T17:00:02.193Z,85.85
2018-11-13T17:05:01.762Z,86.29
2018-11-13T17:10:01.276Z,86.8
2018-11-13T17:15:01.738Z,87.43
2018-11-13T17:20:02.048Z,87.77
2018-11-13T17:25:01.319Z,88.07
2018-11-13T17:30:01.816Z,86.45
2018-11-13T17:35:01.357Z,85.22
2018-11-13T17:40:01.689Z,84.08
2018-11-13T17:45:01.949Z,83.7
2018-11-13T17:50:01.219Z,83.26
2018-11-13T17:55:01.490Z,83.64
2018-11-13T18:00:01.806Z,82.49
2018-11-13T18:05:02.052Z,82.15
2018-11-13T18:10:01.331Z,82.5
2018-11-13T18:15:01.598Z,82.44
2018-11-13T18:20:01.944Z,82.77
2018-11-13T18:25:01.223Z,83.73
2018-11-13T18:30:01.569Z,84.08
2018-11-13T18:35:01.863Z,84.22
2018-11-13T18:40:02.144Z,85.09
2018-11-13T18:45:01.641Z,85.29
2018-11-13T18:50:02.213Z,85.81
2018-11-13T18:55:01.500Z,85.71
2018-11-13T19:00:01.822Z,85.39
2018-11-13T19:05:02.208Z,85.79
2018-11-13T19:10:01.574Z,86.42
2018-11-13T19:15:02.002Z,86.87
2018-11-13T19:20:01.859Z,87.07
2018-11-13T19:25:01.533Z,87.75
2018-11-13T19:30:02.093Z,88.08
2018-11-13T19:35:01.837Z,88.02
2018-11-13T19:40:02.149Z,88.39
2018-11-13T19:45:01.538Z,88.73
2018-11-13T19:50:01.962Z,89.07
2018-11-13T19:55:01.249Z,89.39
2018-11-13T20:00:01.530Z,89.7
2018-11-13T20:05:01.847Z,90.19
2018-11-13T20:10:02.120Z,89.91
2018-11-13T20:15:01.394Z,90.13
2018-11-13T20:20:01.667Z,90.45
2018-11-13T20:25:01.910Z,90.71
2018-11-13T20:30:02.189Z,91.14
2018-11-13T20:35:01.595Z,91.63
2018-11-13T20:40:01.858Z,91.87
2018-11-13T20:45:02.088Z,92.48
2018-11-13T20:50:01.377Z,92.84
2018-11-13T20:55:01.666Z,93.12
2018-11-13T21:00:01.922Z,93.35
2018-11-13T21:05:01.228Z,93.63
2018-11-13T21:10:01.549Z,93.76
2018-11-13T21:15:01.904Z,93.77
2018-11-13T21:20:02.122Z,93.6
2018-11-13T21:25:01.371Z,93.56
2018-11-13T21:30:01.971Z,93.68
2018-11-13T21:35:01.560Z,93.88
2018-11-13T21:40:01.848Z,94.17
2018-11-13T21:45:02.096Z,94.41
2018-11-13T21:50:01.761Z,94.53
2018-11-13T21:55:01.246Z,94.43
2018-11-13T22:00:01.525Z,94.69
2018-11-13T22:05:01.870Z,94.52
2018-11-13T22:10:02.120Z,94.39
2018-11-13T22:15:01.626Z,94.6
2018-11-13T22:20:02.046Z,94.41
2018-11-13T22:25:01.338Z,94.17
2018-11-13T22:30:02.792Z,94.4
2018-11-13T22:35:01.362Z,94.47
2018-11-13T22:40:01.678Z,94.48
2018-11-13T22:45:01.920Z,94.74
2018-11-13T22:50:01.197Z,94.88
2018-11-13T22:55:01.493Z,94.96
2018-11-13T23:00:01.841Z,95.27
2018-11-13T23:05:01.261Z,95.39
2018-11-13T23:10:01.553Z,95.5
2018-11-13T23:15:01.914Z,95.7
2018-11-13T23:20:01.362Z,95.92
2018-11-13T23:25:01.617Z,96.07
2018-11-13T23:30:01.879Z,95.95
2018-11-13T23:35:02.174Z,95.93
2018-11-13T23:40:01.659Z,96.03
2018-11-13T23:45:01.964Z,96.23
2018-11-13T23:50:01.240Z,96.48
2018-11-13T23:55:01.567Z,96.61
